Cargèse

FR-0639 · Corsica del Sud, Corsica, Francia

Storia di METAR FR-0639 · Cargèse

Di seguito sono riportati i METAR degli ultimi giorni. Seleziona un anno per sfogliare i METAR più vecchi, dall'anno 2007 in poi.

17 giugno 2024

Tempo Codice Tempo meteorologico Temp. Vista Base nuvolosa Vento METAR/SPECI
11:00
V
24 °C 10 km+ - 240° 240° 5 kt METAR LFKJ 170900Z AUTO 24005KT 190V280 CAVOK 24/12 Q1016 NOSIG
10:30
V
24 °C 10 km+ - 230° 230° 6 kt METAR LFKJ 170830Z AUTO 23006KT CAVOK 24/13 Q1016 NOSIG
10:00
V
25 °C 10 km+ - 230° 230° 4 kt METAR LFKJ 170800Z AUTO 23004KT 190V250 CAVOK 25/11 Q1016 NOSIG
09:30
V
24 °C 10 km+ - 240° 240° 3 kt METAR LFKJ 170730Z AUTO 24003KT 210V270 CAVOK 24/10 Q1016 NOSIG
09:00
V
24 °C 10 km+ - Var Var 3 kt METAR LFKJ 170700Z AUTO VRB03KT CAVOK 24/09 Q1016 NOSIG
08:30
V
22 °C 10 km+ - 020° 020° 3 kt METAR LFKJ 170630Z AUTO 02003KT 340V060 CAVOK 22/09 Q1016 BECMG 24012KT
08:00
V
19 °C 10 km+ - 040° 040° 3 kt METAR LFKJ 170600Z AUTO 04003KT 020V080 CAVOK 19/10 Q1016 NOSIG
07:30
V
17 °C 10 km+ - 060° 060° 4 kt METAR LFKJ 170530Z AUTO 06004KT 030V090 CAVOK 17/09 Q1016 NOSIG
07:00
V
15 °C 10 km+ - 070° 070° 5 kt METAR LFKJ 170500Z AUTO 07005KT CAVOK 15/08 Q1015 NOSIG
06:30
V
15 °C 10 km+ - 050° 050° 6 kt METAR LFKJ 170430Z AUTO 05006KT CAVOK 15/07 Q1015 NOSIG
06:00
V
14 °C 10 km+ - 050° 050° 7 kt METAR LFKJ 170400Z AUTO 05007KT CAVOK 14/07 Q1015 NOSIG
05:30
V
14 °C 10 km+ - 050° 050° 8 kt METAR LFKJ 170330Z AUTO 05008KT CAVOK 14/08 Q1015 NOSIG
05:00
V
14 °C 10 km+ - 040° 040° 7 kt METAR LFKJ 170300Z AUTO 04007KT CAVOK 14/08 Q1015 NOSIG
04:30
V
14 °C 10 km+ - 050° 050° 6 kt METAR LFKJ 170230Z AUTO 05006KT CAVOK 14/08 Q1015 NOSIG
04:00
V
14 °C 10 km+ - 050° 050° 7 kt METAR LFKJ 170200Z AUTO 05007KT CAVOK 14/08 Q1015 NOSIG
03:30
V
14 °C 10 km+ - 060° 060° 6 kt METAR LFKJ 170130Z AUTO 06006KT CAVOK 14/09 Q1015 NOSIG
03:00
V
14 °C 10 km+ - 050° 050° 6 kt METAR LFKJ 170100Z AUTO 05006KT CAVOK 14/09 Q1015 NOSIG
02:30
V
15 °C 10 km+ - 060° 060° 5 kt METAR LFKJ 170030Z AUTO 06005KT CAVOK 15/09 Q1015 NOSIG
02:00
V
16 °C 10 km+ - 060° 060° 4 kt METAR LFKJ 170000Z AUTO 06004KT CAVOK 16/09 Q1015 NOSIG
01:30
V
16 °C 10 km+ - 050° 050° 5 kt METAR LFKJ 162330Z AUTO 05005KT CAVOK 16/10 Q1015 NOSIG
01:00
V
16 °C 10 km+ - 050° 050° 5 kt METAR LFKJ 162300Z AUTO 05005KT CAVOK 16/10 Q1015 NOSIG
00:30
V
17 °C 10 km+ - 040° 040° 4 kt METAR LFKJ 162230Z AUTO 04004KT CAVOK 17/10 Q1015 NOSIG
00:00
V
17 °C 10 km+ - 050° 050° 7 kt METAR LFKJ 162200Z AUTO 05007KT CAVOK 17/10 Q1015 NOSIG

16 giugno 2024

Tempo Codice Tempo meteorologico Temp. Vista Base nuvolosa Vento METAR/SPECI
23:30
V
17 °C 10 km+ - 050° 050° 6 kt METAR LFKJ 162130Z AUTO 05006KT CAVOK 17/11 Q1016 NOSIG
23:00
V
18 °C 10 km+ - 060° 060° 6 kt METAR LFKJ 162100Z AUTO 06006KT CAVOK 18/11 Q1016 NOSIG
22:30
V
18 °C 10 km+ - 050° 050° 5 kt METAR LFKJ 162030Z AUTO 05005KT CAVOK 18/11 Q1016 NOSIG
22:00
V
19 °C 10 km+ - 050° 050° 4 kt METAR LFKJ 162000Z AUTO 05004KT CAVOK 19/13 Q1015 NOSIG
21:30
V
21 °C 10 km+ - 080° 080° 3 kt METAR LFKJ 161930Z AUTO 08003KT 030V150 CAVOK 21/12 Q1015 NOSIG
21:00
V
21 °C 10 km+ - 200° 200° 5 kt METAR LFKJ 161900Z AUTO 20005KT CAVOK 21/13 Q1015 NOSIG
20:30
V
22 °C 10 km+ - 180° 180° 5 kt METAR LFKJ 161830Z AUTO 18005KT 150V210 CAVOK 22/13 Q1015 NOSIG
20:00
V
23 °C 10 km+ - 200° 200° 8 kt METAR LFKJ 161800Z AUTO 20008KT CAVOK 23/14 Q1014 NOSIG
19:30
V
23 °C 10 km+ - 200° 200° 9 kt METAR LFKJ 161730Z AUTO 20009KT CAVOK 23/15 Q1014 NOSIG
19:00
V
24 °C 10 km+ - 210° 210° 10 kt METAR LFKJ 161700Z AUTO 21010KT CAVOK 24/14 Q1014 BECMG 05002KT
18:30
V
24 °C 10 km+ - 220° 220° 11 kt METAR LFKJ 161630Z AUTO 22011KT CAVOK 24/13 Q1014 BECMG 05002KT
18:00
V
24 °C 10 km+ - 230° 230° 13 kt METAR LFKJ 161600Z AUTO 23013KT CAVOK 24/15 Q1014 NOSIG
17:30
V
24 °C 10 km+ - 230° 230° 14 kt METAR LFKJ 161530Z AUTO 23014KT CAVOK 24/16 Q1014 NOSIG
17:00
V
25 °C 10 km+ - 210° 210° 13 kt METAR LFKJ 161500Z AUTO 21013KT CAVOK 25/16 Q1014 NOSIG
16:30
V
26 °C 10 km+ - 200° 200° 12 kt METAR LFKJ 161430Z AUTO 20012KT CAVOK 26/14 Q1013 NOSIG
16:00
V
26 °C 10 km+ - 200° 200° 15 kt METAR LFKJ 161400Z AUTO 20015KT CAVOK 26/16 Q1013 NOSIG
15:30
V
26 °C 10 km+ - 210° 210° 11 kt METAR LFKJ 161330Z AUTO 21011KT CAVOK 26/17 Q1013 NOSIG
15:00
V
26 °C 10 km+ - 210° 210° 12 kt METAR LFKJ 161300Z AUTO 21012KT CAVOK 26/17 Q1013 NOSIG
14:30
V
26 °C 10 km+ - 210° 210° 13 kt METAR LFKJ 161230Z AUTO 21013KT CAVOK 26/18 Q1013 NOSIG
14:00
V
26 °C 10 km+ - 220° 220° 14 kt METAR LFKJ 161200Z AUTO 22014KT CAVOK 26/18 Q1013 NOSIG
13:30
V
26 °C 10 km+ - 220° 220° 13 kt METAR LFKJ 161130Z AUTO 22013KT CAVOK 26/18 Q1013 NOSIG
13:00
V
26 °C 10 km+ - 220° 220° 13 kt METAR LFKJ 161100Z AUTO 22013KT CAVOK 26/18 Q1013 NOSIG
12:30
V
25 °C 10 km+ - 220° 220° 12 kt METAR LFKJ 161030Z AUTO 22012KT CAVOK 25/18 Q1013 NOSIG
12:00
V
25 °C 10 km+ - 230° 230° 11 kt METAR LFKJ 161000Z AUTO 23011KT CAVOK 25/17 Q1013 NOSIG
11:30
V
24 °C 10 km+ - 240° 240° 8 kt METAR LFKJ 160930Z AUTO 24008KT CAVOK 24/17 Q1013 NOSIG
11:00
V
24 °C 10 km+ - 230° 230° 9 kt METAR LFKJ 160900Z AUTO 23009KT CAVOK 24/17 Q1013 NOSIG
10:30
V
23 °C 10 km+ - 240° 240° 8 kt METAR LFKJ 160830Z AUTO 24008KT CAVOK 23/17 Q1013 NOSIG
10:00
V
23 °C 10 km+ - 240° 240° 7 kt METAR LFKJ 160800Z AUTO 24007KT CAVOK 23/17 Q1013 NOSIG
09:30
V
23 °C 10 km+ - 240° 240° 5 kt METAR LFKJ 160730Z AUTO 24005KT CAVOK 23/15 Q1013 NOSIG
09:00
V
23 °C 10 km+ - 220° 220° 5 kt METAR LFKJ 160700Z AUTO 22005KT CAVOK 23/14 Q1013 NOSIG
08:30
V
22 °C 10 km+ - Var Var 2 kt METAR LFKJ 160630Z AUTO VRB02KT CAVOK 22/13 Q1013 BECMG 23013KT
08:00
V
21 °C 10 km+ - Var Var 2 kt METAR LFKJ 160600Z AUTO VRB02KT CAVOK 21/13 Q1013 NOSIG
07:30
V
19 °C 10 km+ - 030° 030° 4 kt METAR LFKJ 160530Z AUTO 03004KT 360V060 CAVOK 19/13 Q1013 NOSIG
07:00
V
17 °C 10 km+ - 030° 030° 6 kt METAR LFKJ 160500Z AUTO 03006KT CAVOK 17/12 Q1012 NOSIG
06:30
V
15 °C 10 km+ - 050° 050° 8 kt METAR LFKJ 160430Z AUTO 05008KT CAVOK 15/12 Q1013 NOSIG
06:00
V
16 °C 10 km+ - 050° 050° 6 kt METAR LFKJ 160400Z AUTO 05006KT CAVOK 16/12 Q1012 NOSIG
05:30
V
16 °C 10 km+ - 020° 020° 5 kt METAR LFKJ 160330Z AUTO 02005KT CAVOK 16/12 Q1012 NOSIG
05:00
V
16 °C 10 km+ - 050° 050° 5 kt METAR LFKJ 160300Z AUTO 05005KT CAVOK 16/12 Q1012 NOSIG
04:30
V
16 °C 10 km+ - 050° 050° 7 kt METAR LFKJ 160230Z AUTO 05007KT CAVOK 16/12 Q1012 NOSIG
04:00
V
16 °C 10 km+ - 060° 060° 4 kt METAR LFKJ 160200Z AUTO 06004KT CAVOK 16/12 Q1013 NOSIG
03:30
V
16 °C 10 km+ - 030° 030° 7 kt METAR LFKJ 160130Z AUTO 03007KT CAVOK 16/12 Q1013 NOSIG
03:00
V
16 °C 10 km+ - 050° 050° 7 kt METAR LFKJ 160100Z AUTO 05007KT CAVOK 16/12 Q1012 NOSIG
02:30
V
16 °C 10 km+ - 040° 040° 5 kt METAR LFKJ 160030Z AUTO 04005KT CAVOK 16/12 Q1012 NOSIG
02:00
V
17 °C 10 km+ - 060° 060° 4 kt METAR LFKJ 160000Z AUTO 06004KT 030V090 CAVOK 17/12 Q1012 NOSIG
01:30
V
18 °C 10 km+ - 060° 060° 5 kt METAR LFKJ 152330Z AUTO 06005KT CAVOK 18/12 Q1012 NOSIG
01:00
V
18 °C 10 km+ - 050° 050° 4 kt METAR LFKJ 152300Z AUTO 05004KT CAVOK 18/12 Q1012 NOSIG
00:30
V
18 °C 10 km+ - 050° 050° 6 kt METAR LFKJ 152230Z AUTO 05006KT CAVOK 18/13 Q1012 NOSIG
00:00
V
19 °C 10 km+ - 040° 040° 2 kt METAR LFKJ 152200Z AUTO 04002KT CAVOK 19/13 Q1012 NOSIG

15 giugno 2024

Tempo Codice Tempo meteorologico Temp. Vista Base nuvolosa Vento METAR/SPECI
23:30
V
21 °C 10 km+ - 080° 080° 3 kt METAR LFKJ 152130Z AUTO 08003KT 050V120 CAVOK 21/12 Q1012 NOSIG
23:00
V
22 °C 10 km+ - Var Var 2 kt METAR LFKJ 152100Z AUTO VRB02KT CAVOK 22/12 Q1012 NOSIG
22:30
V
22 °C 10 km+ - 030° 030° 4 kt METAR LFKJ 152030Z AUTO 03004KT CAVOK 22/13 Q1011 NOSIG
22:00
V
22 °C 10 km+ - 060° 060° 3 kt METAR LFKJ 152000Z AUTO 06003KT CAVOK 22/14 Q1011 NOSIG
21:30
V
23 °C 10 km+ - 070° 070° 3 kt METAR LFKJ 151930Z AUTO 07003KT CAVOK 23/14 Q1011 NOSIG
21:00
V
23 °C 10 km+ - 230° 230° 4 kt METAR LFKJ 151900Z AUTO 23004KT 190V270 CAVOK 23/15 Q1011 NOSIG
20:30
V
24 °C 10 km+ - 190° 190° 4 kt METAR LFKJ 151830Z AUTO 19004KT 150V240 CAVOK 24/16 Q1011 NOSIG
20:00
V
25 °C 10 km+ - 190° 190° 7 kt METAR LFKJ 151800Z AUTO 19007KT CAVOK 25/17 Q1011 NOSIG
19:30
V
26 °C 10 km+ - 190° 190° 10 kt METAR LFKJ 151730Z AUTO 19010KT CAVOK 26/15 Q1011 NOSIG
19:00
V
27 °C 10 km+ - 190° 190° 9 kt METAR LFKJ 151700Z AUTO 19009KT CAVOK 27/16 Q1011 NOSIG
18:30
V
28 °C 10 km+ - 180° 180° 7 kt METAR LFKJ 151630Z AUTO 18007KT CAVOK 28/15 Q1011 NOSIG
18:00
V
28 °C 10 km+ - 190° 190° 8 kt METAR LFKJ 151600Z AUTO 19008KT CAVOK 28/15 Q1011 NOSIG
17:30
V
29 °C 10 km+ - 190° 190° 9 kt METAR LFKJ 151530Z AUTO 19009KT CAVOK 29/15 Q1011 NOSIG
17:00
V
29 °C 10 km+ - 190° 190° 9 kt METAR LFKJ 151500Z AUTO 19009KT CAVOK 29/15 Q1011 TEMPO FEW100CB
16:30
V
30 °C 10 km+ - 180° 180° 8 kt METAR LFKJ 151430Z AUTO 18008KT CAVOK 30/16 Q1011 NOSIG
16:00
V
28 °C 10 km+ - 180° 180° 9 kt METAR LFKJ 151400Z AUTO 18009KT CAVOK 28/16 Q1011 TEMPO FEW100CB
15:30
V
27 °C 10 km+ - 200° 200° 7 kt METAR LFKJ 151330Z AUTO 20007KT CAVOK 27/16 Q1011 TEMPO FEW100CB
15:00
V
27 °C 10 km+ - 190° 190° 8 kt METAR LFKJ 151300Z AUTO 19008KT CAVOK 27/16 Q1011 TEMPO FEW100CB
14:30
V
27 °C 10 km+ - 200° 200° 11 kt METAR LFKJ 151230Z AUTO 20011KT CAVOK 27/17 Q1011 TEMPO FEW100CB
14:00
V
27 °C 10 km+ - 210° 210° 9 kt METAR LFKJ 151200Z AUTO 21009KT CAVOK 27/16 Q1011 TEMPO FEW100CB
13:30
V
26 °C 10 km+ - 200° 200° 9 kt METAR LFKJ 151130Z AUTO 20009KT CAVOK 26/16 Q1012 TEMPO FEW100CB
13:00
V
26 °C 10 km+ - 190° 190° 10 kt METAR LFKJ 151100Z AUTO 19010KT CAVOK 26/15 Q1012 TEMPO FEW100CB
12:30
V
26 °C 10 km+ - 190° 190° 13 kt METAR LFKJ 151030Z AUTO 19013KT CAVOK 26/16 Q1012 TEMPO FEW100CB
12:00
V
26 °C 10 km+ - 180° 180° 11 kt METAR LFKJ 151000Z AUTO 18011KT CAVOK 26/16 Q1012 NOSIG
11:30
V
26 °C 10 km+ - 210° 210° 10 kt METAR LFKJ 150930Z AUTO 21010KT CAVOK 26/17 Q1012 NOSIG
11:00
V
25 °C 10 km+ - 220° 220° 8 kt METAR LFKJ 150900Z AUTO 22008KT CAVOK 25/17 Q1012 NOSIG
10:30
V
25 °C 10 km+ - 220° 220° 8 kt METAR LFKJ 150830Z AUTO 22008KT CAVOK 25/17 Q1012 NOSIG
10:00
V
25 °C 10 km+ - 210° 210° 9 kt METAR LFKJ 150800Z AUTO 21009KT CAVOK 25/15 Q1012 NOSIG
09:30
V
24 °C 10 km+ - 230° 230° 8 kt METAR LFKJ 150730Z AUTO 23008KT CAVOK 24/16 Q1012 NOSIG
09:00
V
26 °C 10 km+ - 020° 020° 4 kt METAR LFKJ 150700Z AUTO 02004KT 330V050 CAVOK 26/12 Q1012 BECMG 23010KT
08:30
V
24 °C 10 km+ - 030° 030° 5 kt METAR LFKJ 150630Z AUTO 03005KT CAVOK 24/13 Q1013 BECMG 23010KT
08:00
V
21 °C 10 km+ - 030° 030° 7 kt METAR LFKJ 150600Z AUTO 03007KT CAVOK 21/13 Q1013 NOSIG
Segnala modifiche